Terminal Aerodrome Forecast
Issued by NWS

Home | Current Version | Previous Version | Text Only | Print | Product List | Glossary On
Versions: 1 2 3 4 5 6 7 8 9 10 11 12 13
859
FTUS42 TJSJ 180714 AAA
TAFISX
TAF AMD
TISX 180714Z 1807/1906 12006KT P6SM VCTS FEW030CB SCT050
     FM181200 10015G22KT P6SM VCSH SCT015 SCT060
     FM181900 09012KT P6SM FEW030 SCT050=

USA.gov is the U.S. government's official web portal to all federal, state and local government web resources and services.